Aviation Digital Data Service (ADDS)

Output produced by TAFs form (1102 UTC 28 March 2015)
found at http://aviationweather.gov/adds/tafs/
 
KEGE 280534Z 2806/2906 VRB03KT P6SM SKC 
     FM281000 00000KT P6SM SKC 
     FM282000 25015G25KT P6SM FEW070 
     FM290300 34010KT P6SM SCT070 
     FM290500 09005KT P6SM SCT070 AMD LTD TO CLD VIS AND WIND TIL 281400